sensor_id;sensor_type;location;lat;lon;timestamp;pressure;altitude;pressure_sealevel;temperature;humidity
31092;BME280;17747;51.070;10.930;2022-12-24T00:01:31;99669.75;;;7.54;59.74
31092;BME280;17747;51.070;10.930;2022-12-24T00:03:03;99671.41;;;6.91;61.41
31092;BME280;17747;51.070;10.930;2022-12-24T00:04:34;99669.34;;;6.68;63.14
31092;BME280;17747;51.070;10.930;2022-12-24T00:06:06;99669.72;;;6.16;64.82
31092;BME280;17747;51.070;10.930;2022-12-24T00:07:37;99675.22;;;7.12;61.46
31092;BME280;17747;51.070;10.930;2022-12-24T00:09:08;99673.22;;;7.23;61.63
31092;BME280;17747;51.070;10.930;2022-12-24T00:10:40;99672.06;;;7.33;61.19
31092;BME280;17747;51.070;10.930;2022-12-24T00:12:11;99669.81;;;6.84;62.24
31092;BME280;17747;51.070;10.930;2022-12-24T00:13:42;99671.25;;;6.97;62.04
31092;BME280;17747;51.070;10.930;2022-12-24T00:15:14;99671.16;;;6.66;62.54
31092;BME280;17747;51.070;10.930;2022-12-24T00:16:47;99673.88;;;6.96;61.97
31092;BME280;17747;51.070;10.930;2022-12-24T00:18:19;99668.41;;;7.05;61.91
31092;BME280;17747;51.070;10.930;2022-12-24T00:19:50;99665.06;;;6.28;62.91
31092;BME280;17747;51.070;10.930;2022-12-24T00:21:20;99670.94;;;6.74;63.45
31092;BME280;17747;51.070;10.930;2022-12-24T00:22:52;99667.44;;;6.41;64.33
31092;BME280;17747;51.070;10.930;2022-12-24T00:24:22;99664.53;;;7.19;61.58
31092;BME280;17747;51.070;10.930;2022-12-24T00:25:54;99668.31;;;7.08;61.88
31092;BME280;17747;51.070;10.930;2022-12-24T00:27:25;99670.28;;;7.65;60.08
31092;BME280;17747;51.070;10.930;2022-12-24T00:28:57;99672.72;;;7.71;59.67
31092;BME280;17747;51.070;10.930;2022-12-24T00:30:28;99666.75;;;7.35;60.81
31092;BME280;17747;51.070;10.930;2022-12-24T00:32:00;99672.31;;;7.55;60.43
31092;BME280;17747;51.070;10.930;2022-12-24T00:33:31;99667.84;;;6.22;63.17
31092;BME280;17747;51.070;10.930;2022-12-24T00:35:02;99667.88;;;6.92;61.78
31092;BME280;17747;51.070;10.930;2022-12-24T00:36:33;99671.00;;;6.72;62.03
31092;BME280;17747;51.070;10.930;2022-12-24T00:38:05;99669.25;;;7.05;62.25
31092;BME280;17747;51.070;10.930;2022-12-24T00:39:35;99670.06;;;7.41;60.62
31092;BME280;17747;51.070;10.930;2022-12-24T00:41:07;99665.94;;;7.33;60.73
31092;BME280;17747;51.070;10.930;2022-12-24T00:42:53;99678.56;;;6.12;64.05
31092;BME280;17747;51.070;10.930;2022-12-24T00:44:24;99675.88;;;6.87;62.13
31092;BME280;17747;51.070;10.930;2022-12-24T00:45:55;99671.81;;;7.42;61.00
31092;BME280;17747;51.070;10.930;2022-12-24T00:47:28;99676.88;;;7.16;61.41
31092;BME280;17747;51.070;10.930;2022-12-24T00:48:59;99672.22;;;6.59;62.45
31092;BME280;17747;51.070;10.930;2022-12-24T00:50:31;99685.75;;;6.42;64.14
31092;BME280;17747;51.070;10.930;2022-12-24T00:52:01;99683.72;;;7.23;62.50
31092;BME280;17747;51.070;10.930;2022-12-24T00:53:33;99681.03;;;6.56;61.97
31092;BME280;17747;51.070;10.930;2022-12-24T00:55:03;99686.19;;;6.93;61.88
31092;BME280;17747;51.070;10.930;2022-12-24T00:56:35;99685.78;;;6.41;63.88
31092;BME280;17747;51.070;10.930;2022-12-24T00:58:06;99692.19;;;7.65;60.67
31092;BME280;17747;51.070;10.930;2022-12-24T00:59:37;99685.56;;;7.50;60.58
31092;BME280;17747;51.070;10.930;2022-12-24T01:01:08;99688.13;;;7.21;61.42
31092;BME280;17747;51.070;10.930;2022-12-24T01:02:41;99697.31;;;5.95;63.60
31092;BME280;17747;51.070;10.930;2022-12-24T01:04:13;99695.88;;;6.20;65.36
31092;BME280;17747;51.070;10.930;2022-12-24T01:06:01;99696.50;;;6.67;63.08
31092;BME280;17747;51.070;10.930;2022-12-24T01:07:35;99693.13;;;6.62;63.83
31092;BME280;17747;51.070;10.930;2022-12-24T01:09:06;99694.44;;;7.14;62.34
31092;BME280;17747;51.070;10.930;2022-12-24T01:10:37;99699.06;;;7.69;60.54
31092;BME280;17747;51.070;10.930;2022-12-24T01:12:08;99698.66;;;7.83;59.90
31092;BME280;17747;51.070;10.930;2022-12-24T01:13:40;99700.56;;;7.47;61.05
31092;BME280;17747;51.070;10.930;2022-12-24T01:15:12;99708.63;;;7.72;59.96
31092;BME280;17747;51.070;10.930;2022-12-24T01:16:44;99707.47;;;8.12;58.87
31092;BME280;17747;51.070;10.930;2022-12-24T01:18:16;99713.13;;;8.27;58.40
31092;BME280;17747;51.070;10.930;2022-12-24T01:19:48;99710.28;;;7.76;59.26
31092;BME280;17747;51.070;10.930;2022-12-24T01:21:19;99710.81;;;6.89;61.42
31092;BME280;17747;51.070;10.930;2022-12-24T01:22:51;99721.09;;;7.65;60.64
31092;BME280;17747;51.070;10.930;2022-12-24T01:24:21;99714.38;;;7.23;60.82
31092;BME280;17747;51.070;10.930;2022-12-24T01:25:52;99719.75;;;7.50;61.20
31092;BME280;17747;51.070;10.930;2022-12-24T01:27:24;99722.88;;;7.65;60.27
31092;BME280;17747;51.070;10.930;2022-12-24T01:28:55;99715.22;;;7.56;60.19
31092;BME280;17747;51.070;10.930;2022-12-24T01:30:26;99710.41;;;7.05;61.58
31092;BME280;17747;51.070;10.930;2022-12-24T01:31:58;99717.25;;;7.46;60.70
31092;BME280;17747;51.070;10.930;2022-12-24T01:33:31;99729.75;;;7.69;60.84
31092;BME280;17747;51.070;10.930;2022-12-24T01:35:03;99724.88;;;8.16;59.20
31092;BME280;17747;51.070;10.930;2022-12-24T01:36:34;99727.66;;;8.11;58.79
31092;BME280;17747;51.070;10.930;2022-12-24T01:38:05;99731.97;;;8.14;58.39
31092;BME280;17747;51.070;10.930;2022-12-24T01:39:36;99732.75;;;8.45;58.02
31092;BME280;17747;51.070;10.930;2022-12-24T01:41:12;99733.69;;;8.43;57.89
31092;BME280;17747;51.070;10.930;2022-12-24T01:43:01;99728.44;;;7.18;61.04
31092;BME280;17747;51.070;10.930;2022-12-24T01:44:50;99730.44;;;7.10;61.61
31092;BME280;17747;51.070;10.930;2022-12-24T01:46:22;99739.97;;;7.13;62.05
31092;BME280;17747;51.070;10.930;2022-12-24T01:47:55;99726.50;;;6.92;61.71
31092;BME280;17747;51.070;10.930;2022-12-24T01:49:27;99738.34;;;5.94;65.57
31092;BME280;17747;51.070;10.930;2022-12-24T01:51:00;99730.31;;;6.79;63.71
31092;BME280;17747;51.070;10.930;2022-12-24T01:52:32;99736.25;;;6.52;64.12
31092;BME280;17747;51.070;10.930;2022-12-24T01:54:06;99727.19;;;6.65;63.71
31092;BME280;17747;51.070;10.930;2022-12-24T01:55:39;99737.88;;;6.19;63.92
31092;BME280;17747;51.070;10.930;2022-12-24T01:57:12;99739.78;;;6.11;65.24
31092;BME280;17747;51.070;10.930;2022-12-24T01:58:45;99731.34;;;7.43;61.71
31092;BME280;17747;51.070;10.930;2022-12-24T02:00:18;99733.69;;;7.18;61.48
31092;BME280;17747;51.070;10.930;2022-12-24T02:01:49;99735.41;;;7.21;62.31
31092;BME280;17747;51.070;10.930;2022-12-24T02:03:21;99736.03;;;7.63;60.50
31092;BME280;17747;51.070;10.930;2022-12-24T02:04:53;99736.97;;;7.92;59.99
31092;BME280;17747;51.070;10.930;2022-12-24T02:06:27;99739.00;;;7.82;59.91
31092;BME280;17747;51.070;10.930;2022-12-24T02:07:58;99746.59;;;7.62;60.80
31092;BME280;17747;51.070;10.930;2022-12-24T02:09:31;99747.94;;;7.76;59.84
31092;BME280;17747;51.070;10.930;2022-12-24T02:11:04;99747.75;;;8.14;58.91
31092;BME280;17747;51.070;10.930;2022-12-24T02:12:39;99753.09;;;7.79;59.34
31092;BME280;17747;51.070;10.930;2022-12-24T02:14:11;99760.69;;;7.90;59.28
31092;BME280;17747;51.070;10.930;2022-12-24T02:15:52;99760.06;;;7.49;59.93
31092;BME280;17747;51.070;10.930;2022-12-24T02:17:27;99781.19;;;8.08;59.02
31092;BME280;17747;51.070;10.930;2022-12-24T02:19:02;99769.53;;;6.87;60.82
31092;BME280;17747;51.070;10.930;2022-12-24T02:22:30;99762.38;;;7.28;61.01
31092;BME280;17747;51.070;10.930;2022-12-24T02:25:56;99768.56;;;6.54;62.65
31092;BME280;17747;51.070;10.930;2022-12-24T02:27:36;99766.94;;;6.08;64.48
31092;BME280;17747;51.070;10.930;2022-12-24T02:29:20;99760.59;;;6.94;63.13
31092;BME280;17747;51.070;10.930;2022-12-24T02:30:59;99763.75;;;6.34;63.22
31092;BME280;17747;51.070;10.930;2022-12-24T02:32:34;99757.94;;;6.94;62.02
31092;BME280;17747;51.070;10.930;2022-12-24T02:34:06;99765.22;;;7.53;61.36
31092;BME280;17747;51.070;10.930;2022-12-24T02:35:45;99759.19;;;7.49;60.72
31092;BME280;17747;51.070;10.930;2022-12-24T02:37:18;99758.34;;;7.48;60.92
31092;BME280;17747;51.070;10.930;2022-12-24T02:38:53;99766.06;;;7.86;59.51
31092;BME280;17747;51.070;10.930;2022-12-24T02:40:30;99770.25;;;7.93;59.63
31092;BME280;17747;51.070;10.930;2022-12-24T02:42:04;99771.09;;;6.18;62.98
31092;BME280;17747;51.070;10.930;2022-12-24T02:43:37;99778.22;;;6.89;63.24
31092;BME280;17747;51.070;10.930;2022-12-24T02:45:10;99786.56;;;7.40;61.05
31092;BME280;17747;51.070;10.930;2022-12-24T02:46:44;99785.63;;;7.75;59.96
31092;BME280;17747;51.070;10.930;2022-12-24T02:48:16;99781.84;;;7.86;59.69
31092;BME280;17747;51.070;10.930;2022-12-24T02:49:49;99790.09;;;6.68;63.11
31092;BME280;17747;51.070;10.930;2022-12-24T02:51:21;99787.88;;;7.58;60.89
31092;BME280;17747;51.070;10.930;2022-12-24T02:52:53;99792.75;;;7.72;59.75
31092;BME280;17747;51.070;10.930;2022-12-24T02:54:23;99788.28;;;8.06;59.11
31092;BME280;17747;51.070;10.930;2022-12-24T02:57:49;99794.44;;;7.05;60.75
31092;BME280;17747;51.070;10.930;2022-12-24T02:59:32;99790.88;;;6.33;63.87
31092;BME280;17747;51.070;10.930;2022-12-24T03:01:07;99781.19;;;5.50;66.41
31092;BME280;17747;51.070;10.930;2022-12-24T03:02:51;99781.03;;;5.58;67.38
31092;BME280;17747;51.070;10.930;2022-12-24T03:04:28;99785.56;;;6.75;63.99
31092;BME280;17747;51.070;10.930;2022-12-24T03:06:10;99783.38;;;7.29;61.42
31092;BME280;17747;51.070;10.930;2022-12-24T03:07:49;99788.63;;;7.62;60.51
31092;BME280;17747;51.070;10.930;2022-12-24T03:09:27;99785.72;;;7.72;59.95
31092;BME280;17747;51.070;10.930;2022-12-24T03:11:01;99795.28;;;7.75;59.73
31092;BME280;17747;51.070;10.930;2022-12-24T03:12:35;99793.25;;;7.54;60.45
31092;BME280;17747;51.070;10.930;2022-12-24T03:14:07;99790.50;;;7.24;60.79
31092;BME280;17747;51.070;10.930;2022-12-24T03:15:39;99803.22;;;7.73;59.67
31092;BME280;17747;51.070;10.930;2022-12-24T03:17:11;99797.50;;;7.25;61.01
31092;BME280;17747;51.070;10.930;2022-12-24T03:18:45;99805.94;;;7.70;59.89
31092;BME280;17747;51.070;10.930;2022-12-24T03:20:20;99804.41;;;7.62;59.89
31092;BME280;17747;51.070;10.930;2022-12-24T03:21:53;99802.34;;;7.40;60.98
31092;BME280;17747;51.070;10.930;2022-12-24T03:23:26;99807.56;;;7.76;59.57
31092;BME280;17747;51.070;10.930;2022-12-24T03:24:58;99806.94;;;7.66;59.67
31092;BME280;17747;51.070;10.930;2022-12-24T03:26:29;99805.97;;;7.36;60.34
31092;BME280;17747;51.070;10.930;2022-12-24T03:28:02;99808.13;;;7.55;60.09
31092;BME280;17747;51.070;10.930;2022-12-24T03:29:34;99809.22;;;6.33;62.87
31092;BME280;17747;51.070;10.930;2022-12-24T03:31:06;99806.78;;;7.38;60.52
31092;BME280;17747;51.070;10.930;2022-12-24T03:32:37;99806.28;;;7.24;60.96
31092;BME280;17747;51.070;10.930;2022-12-24T03:34:10;99808.94;;;7.57;59.93
31092;BME280;17747;51.070;10.930;2022-12-24T03:35:42;99824.97;;;6.72;61.12
31092;BME280;17747;51.070;10.930;2022-12-24T03:37:13;99814.88;;;6.13;63.00
31092;BME280;17747;51.070;10.930;2022-12-24T03:38:44;99818.41;;;6.12;64.38
31092;BME280;17747;51.070;10.930;2022-12-24T03:40:15;99818.94;;;5.38;65.98
31092;BME280;17747;51.070;10.930;2022-12-24T03:41:46;99817.13;;;6.31;64.92
31092;BME280;17747;51.070;10.930;2022-12-24T03:43:17;99826.88;;;5.82;64.98
31092;BME280;17747;51.070;10.930;2022-12-24T03:44:47;99824.91;;;6.36;63.97
31092;BME280;17747;51.070;10.930;2022-12-24T03:46:19;99821.78;;;6.19;64.83
31092;BME280;17747;51.070;10.930;2022-12-24T03:47:49;99823.41;;;7.02;61.91
31092;BME280;17747;51.070;10.930;2022-12-24T03:49:22;99822.97;;;6.44;62.10
31092;BME280;17747;51.070;10.930;2022-12-24T03:50:52;99816.59;;;6.56;63.02
31092;BME280;17747;51.070;10.930;2022-12-24T03:52:24;99814.88;;;7.65;60.35
31092;BME280;17747;51.070;10.930;2022-12-24T03:53:55;99822.59;;;7.00;61.53
31092;BME280;17747;51.070;10.930;2022-12-24T03:55:27;99818.16;;;7.39;60.28
31092;BME280;17747;51.070;10.930;2022-12-24T03:56:58;99823.66;;;7.62;59.11
31092;BME280;17747;51.070;10.930;2022-12-24T03:58:29;99822.13;;;7.19;59.76
31092;BME280;17747;51.070;10.930;2022-12-24T04:00:00;99832.84;;;7.80;59.15
31092;BME280;17747;51.070;10.930;2022-12-24T04:01:31;99831.31;;;7.02;59.93
31092;BME280;17747;51.070;10.930;2022-12-24T04:03:03;99837.41;;;7.73;59.24
31092;BME280;17747;51.070;10.930;2022-12-24T04:04:34;99837.03;;;7.55;58.70
31092;BME280;17747;51.070;10.930;2022-12-24T04:06:07;99838.56;;;7.62;59.10
31092;BME280;17747;51.070;10.930;2022-12-24T04:07:38;99849.81;;;7.34;59.67
31092;BME280;17747;51.070;10.930;2022-12-24T04:09:10;99852.59;;;6.89;60.11
31092;BME280;17747;51.070;10.930;2022-12-24T04:10:41;99853.13;;;7.42;59.46
31092;BME280;17747;51.070;10.930;2022-12-24T04:12:11;99849.91;;;7.65;58.71
31092;BME280;17747;51.070;10.930;2022-12-24T04:13:43;99849.47;;;7.11;59.63
31092;BME280;17747;51.070;10.930;2022-12-24T04:15:14;99849.19;;;7.59;58.78
31092;BME280;17747;51.070;10.930;2022-12-24T04:16:45;99851.66;;;7.29;59.46
31092;BME280;17747;51.070;10.930;2022-12-24T04:18:16;99847.34;;;7.27;59.97
31092;BME280;17747;51.070;10.930;2022-12-24T04:19:48;99857.69;;;7.34;59.75
31092;BME280;17747;51.070;10.930;2022-12-24T04:21:19;99858.50;;;7.70;59.09
31092;BME280;17747;51.070;10.930;2022-12-24T04:22:51;99852.84;;;7.52;59.02
31092;BME280;17747;51.070;10.930;2022-12-24T04:24:22;99853.00;;;7.10;59.80
31092;BME280;17747;51.070;10.930;2022-12-24T04:25:53;99850.50;;;7.75;59.01
31092;BME280;17747;51.070;10.930;2022-12-24T04:27:24;99861.31;;;6.51;60.69
31092;BME280;17747;51.070;10.930;2022-12-24T04:28:55;99852.75;;;7.22;60.65
31092;BME280;17747;51.070;10.930;2022-12-24T04:30:27;99858.75;;;7.94;58.51
31092;BME280;17747;51.070;10.930;2022-12-24T04:31:57;99856.06;;;7.29;59.90
31092;BME280;17747;51.070;10.930;2022-12-24T04:33:28;99859.28;;;7.74;58.57
31092;BME280;17747;51.070;10.930;2022-12-24T04:35:01;99855.75;;;7.41;59.29
31092;BME280;17747;51.070;10.930;2022-12-24T04:36:33;99855.22;;;7.62;58.63
31092;BME280;17747;51.070;10.930;2022-12-24T04:38:04;99858.13;;;7.14;60.37
31092;BME280;17747;51.070;10.930;2022-12-24T04:39:36;99863.25;;;7.20;59.68
31092;BME280;17747;51.070;10.930;2022-12-24T04:41:09;99861.28;;;7.66;58.84
31092;BME280;17747;51.070;10.930;2022-12-24T04:42:39;99866.91;;;7.85;57.96
31092;BME280;17747;51.070;10.930;2022-12-24T04:44:11;99865.63;;;6.54;60.61
31092;BME280;17747;51.070;10.930;2022-12-24T04:45:41;99866.59;;;7.63;59.02
31092;BME280;17747;51.070;10.930;2022-12-24T04:47:13;99864.78;;;6.53;61.72
31092;BME280;17747;51.070;10.930;2022-12-24T04:48:43;99871.06;;;6.45;62.06
31092;BME280;17747;51.070;10.930;2022-12-24T04:50:16;99864.94;;;7.25;60.17
31092;BME280;17747;51.070;10.930;2022-12-24T04:51:48;99873.75;;;7.58;58.88
31092;BME280;17747;51.070;10.930;2022-12-24T04:53:18;99875.38;;;7.26;59.87
31092;BME280;17747;51.070;10.930;2022-12-24T04:54:50;99866.25;;;7.76;58.15
31092;BME280;17747;51.070;10.930;2022-12-24T04:56:22;99866.97;;;7.82;57.86
31092;BME280;17747;51.070;10.930;2022-12-24T04:57:54;99865.28;;;7.08;59.58
31092;BME280;17747;51.070;10.930;2022-12-24T04:59:25;99864.00;;;7.61;58.56
31092;BME280;17747;51.070;10.930;2022-12-24T05:01:01;99863.63;;;7.42;58.94
31092;BME280;17747;51.070;10.930;2022-12-24T05:02:33;99870.19;;;7.93;57.81
31092;BME280;17747;51.070;10.930;2022-12-24T05:04:03;99874.25;;;8.04;56.91
31092;BME280;17747;51.070;10.930;2022-12-24T05:05:37;99874.00;;;8.14;56.92
31092;BME280;17747;51.070;10.930;2022-12-24T05:07:07;99875.34;;;7.96;57.12
31092;BME280;17747;51.070;10.930;2022-12-24T05:08:39;99881.13;;;7.77;57.35
31092;BME280;17747;51.070;10.930;2022-12-24T05:10:09;99877.94;;;7.65;57.78
31092;BME280;17747;51.070;10.930;2022-12-24T05:11:41;99878.53;;;7.76;57.98
31092;BME280;17747;51.070;10.930;2022-12-24T05:13:12;99868.72;;;7.48;57.56
31092;BME280;17747;51.070;10.930;2022-12-24T05:14:44;99880.50;;;6.93;60.82
31092;BME280;17747;51.070;10.930;2022-12-24T05:16:16;99872.03;;;7.19;59.50
31092;BME280;17747;51.070;10.930;2022-12-24T05:17:48;99877.63;;;7.41;58.88
31092;BME280;17747;51.070;10.930;2022-12-24T05:19:20;99877.97;;;7.28;58.82
31092;BME280;17747;51.070;10.930;2022-12-24T05:20:52;99877.06;;;7.66;58.03
31092;BME280;17747;51.070;10.930;2022-12-24T05:22:24;99875.72;;;7.82;57.65
31092;BME280;17747;51.070;10.930;2022-12-24T05:24:13;99881.25;;;8.05;56.64
31092;BME280;17747;51.070;10.930;2022-12-24T05:26:01;99885.72;;;8.02;56.97
31092;BME280;17747;51.070;10.930;2022-12-24T05:27:50;99885.25;;;7.86;56.99
31092;BME280;17747;51.070;10.930;2022-12-24T05:29:23;99888.41;;;8.00;56.84
31092;BME280;17747;51.070;10.930;2022-12-24T05:30:55;99895.69;;;7.18;58.21
31092;BME280;17747;51.070;10.930;2022-12-24T05:32:25;99896.56;;;7.56;58.37
31092;BME280;17747;51.070;10.930;2022-12-24T05:33:57;99901.63;;;7.28;59.12
31092;BME280;17747;51.070;10.930;2022-12-24T05:35:28;99900.66;;;7.67;58.12
31092;BME280;17747;51.070;10.930;2022-12-24T05:37:01;99899.63;;;7.73;57.70
31092;BME280;17747;51.070;10.930;2022-12-24T05:38:32;99905.84;;;7.70;57.38
31092;BME280;17747;51.070;10.930;2022-12-24T05:40:03;99903.25;;;7.33;58.79
31092;BME280;17747;51.070;10.930;2022-12-24T05:41:35;99907.03;;;6.81;60.35
31092;BME280;17747;51.070;10.930;2022-12-24T05:43:06;99909.13;;;7.44;58.72
31092;BME280;17747;51.070;10.930;2022-12-24T05:44:37;99918.81;;;7.41;58.71
31092;BME280;17747;51.070;10.930;2022-12-24T05:46:09;99918.25;;;7.65;58.03
31092;BME280;17747;51.070;10.930;2022-12-24T05:47:40;99911.41;;;7.92;57.34
31092;BME280;17747;51.070;10.930;2022-12-24T05:49:12;99925.88;;;7.00;59.36
31092;BME280;17747;51.070;10.930;2022-12-24T05:50:42;99926.38;;;7.55;58.18
31092;BME280;17747;51.070;10.930;2022-12-24T05:52:15;99925.53;;;7.54;58.33
31092;BME280;17747;51.070;10.930;2022-12-24T05:53:46;99926.09;;;7.67;57.89
31092;BME280;17747;51.070;10.930;2022-12-24T05:55:17;99920.53;;;7.79;57.50
31092;BME280;17747;51.070;10.930;2022-12-24T05:56:48;99927.19;;;7.92;57.07
31092;BME280;17747;51.070;10.930;2022-12-24T05:58:20;99924.03;;;7.04;59.27
31092;BME280;17747;51.070;10.930;2022-12-24T05:59:50;99930.63;;;7.60;57.84
31092;BME280;17747;51.070;10.930;2022-12-24T06:01:22;99936.56;;;7.33;58.97
31092;BME280;17747;51.070;10.930;2022-12-24T06:02:53;99940.34;;;7.57;57.98
31092;BME280;17747;51.070;10.930;2022-12-24T06:04:24;99934.41;;;7.84;57.47
31092;BME280;17747;51.070;10.930;2022-12-24T06:05:59;99942.69;;;8.03;56.81
31092;BME280;17747;51.070;10.930;2022-12-24T06:07:32;99937.28;;;8.07;56.54
31092;BME280;17747;51.070;10.930;2022-12-24T06:09:03;99938.19;;;8.06;56.62
31092;BME280;17747;51.070;10.930;2022-12-24T06:10:34;99941.50;;;7.81;57.31
31092;BME280;17747;51.070;10.930;2022-12-24T06:12:05;99949.09;;;7.57;57.62
31092;BME280;17747;51.070;10.930;2022-12-24T06:13:37;99952.44;;;7.64;57.37
31092;BME280;17747;51.070;10.930;2022-12-24T06:15:08;99949.91;;;7.59;57.84
31092;BME280;17747;51.070;10.930;2022-12-24T06:16:39;99957.47;;;7.73;57.54
31092;BME280;17747;51.070;10.930;2022-12-24T06:18:11;99960.84;;;7.42;58.14
31092;BME280;17747;51.070;10.930;2022-12-24T06:19:42;99964.63;;;8.02;56.97
31092;BME280;17747;51.070;10.930;2022-12-24T06:21:14;99960.09;;;7.73;57.18
31092;BME280;17747;51.070;10.930;2022-12-24T06:22:46;99960.91;;;7.75;57.28
31092;BME280;17747;51.070;10.930;2022-12-24T06:24:17;99958.06;;;7.84;57.15
31092;BME280;17747;51.070;10.930;2022-12-24T06:25:49;99961.09;;;7.69;57.08
31092;BME280;17747;51.070;10.930;2022-12-24T06:27:21;99961.22;;;7.63;57.70
31092;BME280;17747;51.070;10.930;2022-12-24T06:28:52;99962.41;;;7.49;58.14
31092;BME280;17747;51.070;10.930;2022-12-24T06:30:24;99964.31;;;7.80;57.37
31092;BME280;17747;51.070;10.930;2022-12-24T06:31:54;99972.88;;;7.88;56.94
31092;BME280;17747;51.070;10.930;2022-12-24T06:33:25;99964.22;;;7.83;56.92
31092;BME280;17747;51.070;10.930;2022-12-24T06:34:56;99964.91;;;7.56;57.58
31092;BME280;17747;51.070;10.930;2022-12-24T06:36:27;99970.31;;;7.49;57.82
31092;BME280;17747;51.070;10.930;2022-12-24T06:38:00;99976.47;;;7.48;57.94
31092;BME280;17747;51.070;10.930;2022-12-24T06:39:31;99980.66;;;7.57;57.84
31092;BME280;17747;51.070;10.930;2022-12-24T06:41:04;99983.31;;;6.27;61.09
31092;BME280;17747;51.070;10.930;2022-12-24T06:42:36;99970.72;;;6.00;63.04
31092;BME280;17747;51.070;10.930;2022-12-24T06:44:07;99976.63;;;7.01;60.14
31092;BME280;17747;51.070;10.930;2022-12-24T06:45:39;99983.88;;;7.31;58.84
31092;BME280;17747;51.070;10.930;2022-12-24T06:47:09;99985.59;;;7.32;58.76
31092;BME280;17747;51.070;10.930;2022-12-24T06:48:41;99979.59;;;6.41;60.82
31092;BME280;17747;51.070;10.930;2022-12-24T06:50:12;99982.03;;;6.93;59.75
31092;BME280;17747;51.070;10.930;2022-12-24T06:51:44;99991.28;;;7.11;59.26
31092;BME280;17747;51.070;10.930;2022-12-24T06:53:17;99990.28;;;6.76;60.16
31092;BME280;17747;51.070;10.930;2022-12-24T06:54:48;99985.75;;;5.89;62.10
31092;BME280;17747;51.070;10.930;2022-12-24T06:56:19;99988.94;;;4.89;65.44
31092;BME280;17747;51.070;10.930;2022-12-24T06:57:51;99993.94;;;6.21;63.43
31092;BME280;17747;51.070;10.930;2022-12-24T06:59:21;99996.88;;;6.03;63.53
31092;BME280;17747;51.070;10.930;2022-12-24T07:00:53;99996.84;;;6.97;60.60
31092;BME280;17747;51.070;10.930;2022-12-24T07:02:24;100004.88;;;5.97;61.99
31092;BME280;17747;51.070;10.930;2022-12-24T07:03:56;99995.94;;;6.05;63.06
31092;BME280;17747;51.070;10.930;2022-12-24T07:05:27;100000.91;;;6.69;61.81
31092;BME280;17747;51.070;10.930;2022-12-24T07:06:58;100005.81;;;6.87;60.62
31092;BME280;17747;51.070;10.930;2022-12-24T07:08:31;100007.97;;;6.17;60.98
31092;BME280;17747;51.070;10.930;2022-12-24T07:10:05;100006.75;;;6.83;61.04
31092;BME280;17747;51.070;10.930;2022-12-24T07:11:36;100016.38;;;6.82;60.39
31092;BME280;17747;51.070;10.930;2022-12-24T07:13:07;100019.25;;;7.13;59.09
31092;BME280;17747;51.070;10.930;2022-12-24T07:14:39;100019.22;;;5.71;63.06
31092;BME280;17747;51.070;10.930;2022-12-24T07:16:10;100021.00;;;7.13;60.40
31092;BME280;17747;51.070;10.930;2022-12-24T07:17:42;100015.97;;;7.45;58.67
31092;BME280;17747;51.070;10.930;2022-12-24T07:19:13;100019.88;;;7.26;59.46
31092;BME280;17747;51.070;10.930;2022-12-24T07:20:44;100028.00;;;7.56;58.51
31092;BME280;17747;51.070;10.930;2022-12-24T07:22:15;100024.31;;;7.63;58.06
31092;BME280;17747;51.070;10.930;2022-12-24T07:23:48;100020.63;;;6.89;59.57
31092;BME280;17747;51.070;10.930;2022-12-24T07:25:19;100023.78;;;7.05;60.14
31092;BME280;17747;51.070;10.930;2022-12-24T07:26:51;100019.72;;;7.34;58.91
31092;BME280;17747;51.070;10.930;2022-12-24T07:28:22;100023.22;;;6.46;61.45
31092;BME280;17747;51.070;10.930;2022-12-24T07:29:53;100031.69;;;6.60;61.31
31092;BME280;17747;51.070;10.930;2022-12-24T07:31:24;100035.31;;;6.04;61.91
31092;BME280;17747;51.070;10.930;2022-12-24T07:32:55;100028.63;;;6.37;62.67
31092;BME280;17747;51.070;10.930;2022-12-24T07:34:26;100030.84;;;5.55;63.50
31092;BME280;17747;51.070;10.930;2022-12-24T07:35:58;100041.81;;;6.80;61.42
31092;BME280;17747;51.070;10.930;2022-12-24T07:37:30;100040.25;;;7.13;59.98
31092;BME280;17747;51.070;10.930;2022-12-24T07:39:02;100042.94;;;6.19;61.47
31092;BME280;17747;51.070;10.930;2022-12-24T07:40:34;100047.06;;;6.80;61.00
31092;BME280;17747;51.070;10.930;2022-12-24T07:42:05;100051.91;;;5.48;64.63
31092;BME280;17747;51.070;10.930;2022-12-24T07:43:37;100050.59;;;6.31;62.06
31092;BME280;17747;51.070;10.930;2022-12-24T07:45:09;100058.50;;;6.28;61.58
31092;BME280;17747;51.070;10.930;2022-12-24T07:46:40;100057.03;;;6.12;62.54
31092;BME280;17747;51.070;10.930;2022-12-24T07:48:12;100055.97;;;6.24;62.85
31092;BME280;17747;51.070;10.930;2022-12-24T07:49:44;100055.31;;;6.11;63.19
31092;BME280;17747;51.070;10.930;2022-12-24T07:51:15;100056.38;;;6.49;62.53
31092;BME280;17747;51.070;10.930;2022-12-24T07:52:46;100058.50;;;5.74;63.10
31092;BME280;17747;51.070;10.930;2022-12-24T07:54:19;100063.81;;;6.73;61.55
31092;BME280;17747;51.070;10.930;2022-12-24T07:55:51;100068.00;;;5.82;63.60
31092;BME280;17747;51.070;10.930;2022-12-24T07:57:22;100067.16;;;6.81;60.88
31092;BME280;17747;51.070;10.930;2022-12-24T07:58:54;100074.28;;;7.19;60.53
31092;BME280;17747;51.070;10.930;2022-12-24T08:00:25;100072.63;;;7.57;58.64
31092;BME280;17747;51.070;10.930;2022-12-24T08:01:57;100077.59;;;7.29;58.83
31092;BME280;17747;51.070;10.930;2022-12-24T08:03:28;100075.31;;;7.93;57.90
31092;BME280;17747;51.070;10.930;2022-12-24T08:05:00;100080.91;;;7.39;59.00
31092;BME280;17747;51.070;10.930;2022-12-24T08:06:31;100080.94;;;7.37;59.27
31092;BME280;17747;51.070;10.930;2022-12-24T08:08:02;100075.88;;;7.28;59.37
31092;BME280;17747;51.070;10.930;2022-12-24T08:09:34;100083.66;;;7.73;58.34
31092;BME280;17747;51.070;10.930;2022-12-24T08:11:07;100083.91;;;7.20;58.64
31092;BME280;17747;51.070;10.930;2022-12-24T08:12:37;100085.59;;;6.78;59.68
31092;BME280;17747;51.070;10.930;2022-12-24T08:14:09;100088.34;;;7.17;59.72